sensor_id;sensor_type;location;lat;lon;timestamp;temperature;humidity
3086;DHT22;52812;48.960;9.108;2023-03-16T00:02:18;-0.20;99.90
3086;DHT22;52812;48.960;9.108;2023-03-16T00:04:44;-0.20;99.90
3086;DHT22;52812;48.960;9.108;2023-03-16T00:07:12;-0.10;99.90
3086;DHT22;52812;48.960;9.108;2023-03-16T00:09:39;-0.20;99.90
3086;DHT22;52812;48.960;9.108;2023-03-16T00:12:10;-0.30;99.90
3086;DHT22;52812;48.960;9.108;2023-03-16T00:14:40;-0.30;99.90
3086;DHT22;52812;48.960;9.108;2023-03-16T00:17:06;-0.30;99.90
3086;DHT22;52812;48.960;9.108;2023-03-16T00:19:32;-0.30;99.90
3086;DHT22;52812;48.960;9.108;2023-03-16T00:21:59;-0.30;99.90
3086;DHT22;52812;48.960;9.108;2023-03-16T00:24:25;-0.30;99.90
3086;DHT22;52812;48.960;9.108;2023-03-16T00:26:51;-0.40;99.90
3086;DHT22;52812;48.960;9.108;2023-03-16T00:29:19;-0.40;99.90
3086;DHT22;52812;48.960;9.108;2023-03-16T00:31:47;-0.30;99.90
3086;DHT22;52812;48.960;9.108;2023-03-16T00:34:12;-0.30;99.90
3086;DHT22;52812;48.960;9.108;2023-03-16T00:36:40;-0.30;99.90
3086;DHT22;52812;48.960;9.108;2023-03-16T00:39:07;-0.30;99.90
3086;DHT22;52812;48.960;9.108;2023-03-16T00:41:35;-0.30;99.90
3086;DHT22;52812;48.960;9.108;2023-03-16T00:44:05;-0.30;99.90
3086;DHT22;52812;48.960;9.108;2023-03-16T00:46:31;-0.30;99.90
3086;DHT22;52812;48.960;9.108;2023-03-16T00:48:57;-0.40;99.90
3086;DHT22;52812;48.960;9.108;2023-03-16T00:51:22;-0.40;99.90
3086;DHT22;52812;48.960;9.108;2023-03-16T00:53:48;-0.40;99.90
3086;DHT22;52812;48.960;9.108;2023-03-16T00:56:15;-0.40;99.90
3086;DHT22;52812;48.960;9.108;2023-03-16T00:58:41;-0.50;99.90
3086;DHT22;52812;48.960;9.108;2023-03-16T01:01:10;-0.60;99.90
3086;DHT22;52812;48.960;9.108;2023-03-16T01:03:36;-0.60;99.90
3086;DHT22;52812;48.960;9.108;2023-03-16T01:06:14;-0.70;99.90
3086;DHT22;52812;48.960;9.108;2023-03-16T01:08:41;-0.70;99.90
3086;DHT22;52812;48.960;9.108;2023-03-16T01:11:13;-0.80;99.90
3086;DHT22;52812;48.960;9.108;2023-03-16T01:13:41;-0.80;99.90
3086;DHT22;52812;48.960;9.108;2023-03-16T01:16:07;-0.70;99.90
3086;DHT22;52812;48.960;9.108;2023-03-16T01:18:33;-0.70;99.90
3086;DHT22;52812;48.960;9.108;2023-03-16T01:21:00;-0.70;99.90
3086;DHT22;52812;48.960;9.108;2023-03-16T01:23:28;-0.70;99.90
3086;DHT22;52812;48.960;9.108;2023-03-16T01:25:57;-0.60;99.90
3086;DHT22;52812;48.960;9.108;2023-03-16T01:28:25;-0.70;99.90
3086;DHT22;52812;48.960;9.108;2023-03-16T01:30:52;-0.70;99.90
3086;DHT22;52812;48.960;9.108;2023-03-16T01:33:23;-0.70;99.90
3086;DHT22;52812;48.960;9.108;2023-03-16T01:35:58;-0.70;99.90
3086;DHT22;52812;48.960;9.108;2023-03-16T01:38:24;-0.70;99.90
3086;DHT22;52812;48.960;9.108;2023-03-16T01:40:52;-0.70;99.90
3086;DHT22;52812;48.960;9.108;2023-03-16T01:43:21;-0.60;99.90
3086;DHT22;52812;48.960;9.108;2023-03-16T01:49:05;-0.60;99.90
3086;DHT22;52812;48.960;9.108;2023-03-16T01:51:30;-0.70;99.90
3086;DHT22;52812;48.960;9.108;2023-03-16T01:54:14;-0.70;99.90
3086;DHT22;52812;48.960;9.108;2023-03-16T01:57:22;-0.60;99.90
3086;DHT22;52812;48.960;9.108;2023-03-16T01:59:54;-0.60;99.90
3086;DHT22;52812;48.960;9.108;2023-03-16T02:02:25;-0.60;99.90
3086;DHT22;52812;48.960;9.108;2023-03-16T02:07:40;-0.60;99.90
3086;DHT22;52812;48.960;9.108;2023-03-16T02:10:08;-0.60;99.90
3086;DHT22;52812;48.960;9.108;2023-03-16T02:12:35;-0.60;99.90
3086;DHT22;52812;48.960;9.108;2023-03-16T02:15:00;-0.60;99.90
3086;DHT22;52812;48.960;9.108;2023-03-16T02:17:30;-0.60;99.90
3086;DHT22;52812;48.960;9.108;2023-03-16T02:20:22;-0.60;99.90
3086;DHT22;52812;48.960;9.108;2023-03-16T02:22:51;-0.60;99.90
3086;DHT22;52812;48.960;9.108;2023-03-16T02:25:21;-0.70;99.90
3086;DHT22;52812;48.960;9.108;2023-03-16T02:28:02;-0.70;99.90
3086;DHT22;52812;48.960;9.108;2023-03-16T02:30:30;-0.70;99.90
3086;DHT22;52812;48.960;9.108;2023-03-16T02:32:56;-0.60;99.90
3086;DHT22;52812;48.960;9.108;2023-03-16T02:35:22;-0.60;99.90
3086;DHT22;52812;48.960;9.108;2023-03-16T02:37:48;-0.70;99.90
3086;DHT22;52812;48.960;9.108;2023-03-16T02:40:22;-0.70;99.90
3086;DHT22;52812;48.960;9.108;2023-03-16T02:43:04;-0.70;99.90
3086;DHT22;52812;48.960;9.108;2023-03-16T02:45:35;-0.70;99.90
3086;DHT22;52812;48.960;9.108;2023-03-16T02:48:08;-0.70;99.90
3086;DHT22;52812;48.960;9.108;2023-03-16T02:50:45;-0.80;99.90
3086;DHT22;52812;48.960;9.108;2023-03-16T02:53:12;-0.80;99.90
3086;DHT22;52812;48.960;9.108;2023-03-16T02:55:38;-0.80;99.90
3086;DHT22;52812;48.960;9.108;2023-03-16T02:58:03;-0.80;99.90
3086;DHT22;52812;48.960;9.108;2023-03-16T03:00:29;-0.80;99.90
3086;DHT22;52812;48.960;9.108;2023-03-16T03:02:55;-0.80;99.90
3086;DHT22;52812;48.960;9.108;2023-03-16T03:05:20;-0.80;99.90
3086;DHT22;52812;48.960;9.108;2023-03-16T03:07:46;-0.80;99.90
3086;DHT22;52812;48.960;9.108;2023-03-16T03:10:12;-0.80;99.90
3086;DHT22;52812;48.960;9.108;2023-03-16T03:12:38;-0.80;99.90
3086;DHT22;52812;48.960;9.108;2023-03-16T03:15:03;-0.90;99.90
3086;DHT22;52812;48.960;9.108;2023-03-16T03:17:29;-0.80;99.90
3086;DHT22;52812;48.960;9.108;2023-03-16T03:19:59;-0.90;99.90
3086;DHT22;52812;48.960;9.108;2023-03-16T03:22:26;-0.90;99.90
3086;DHT22;52812;48.960;9.108;2023-03-16T03:24:52;-0.90;99.90
3086;DHT22;52812;48.960;9.108;2023-03-16T03:27:18;-0.90;99.90
3086;DHT22;52812;48.960;9.108;2023-03-16T03:29:44;-0.80;99.90
3086;DHT22;52812;48.960;9.108;2023-03-16T03:32:10;-0.80;99.90
3086;DHT22;52812;48.960;9.108;2023-03-16T03:34:36;-0.80;99.90
3086;DHT22;52812;48.960;9.108;2023-03-16T03:37:02;-0.90;99.90
3086;DHT22;52812;48.960;9.108;2023-03-16T03:39:28;-0.90;99.90
3086;DHT22;52812;48.960;9.108;2023-03-16T03:41:53;-0.90;99.90
3086;DHT22;52812;48.960;9.108;2023-03-16T03:44:22;-0.80;99.90
3086;DHT22;52812;48.960;9.108;2023-03-16T03:46:49;-0.90;99.90
3086;DHT22;52812;48.960;9.108;2023-03-16T03:49:16;-0.80;99.90
3086;DHT22;52812;48.960;9.108;2023-03-16T03:51:42;-0.90;99.90
3086;DHT22;52812;48.960;9.108;2023-03-16T03:54:08;-0.80;99.90
3086;DHT22;52812;48.960;9.108;2023-03-16T03:56:33;-0.90;99.90
3086;DHT22;52812;48.960;9.108;2023-03-16T03:58:59;-0.90;99.90
3086;DHT22;52812;48.960;9.108;2023-03-16T04:01:25;-0.90;99.90
3086;DHT22;52812;48.960;9.108;2023-03-16T04:03:51;-1.00;99.90
3086;DHT22;52812;48.960;9.108;2023-03-16T04:06:16;-1.00;99.90
3086;DHT22;52812;48.960;9.108;2023-03-16T04:08:42;-1.00;99.90
3086;DHT22;52812;48.960;9.108;2023-03-16T04:11:08;-0.90;99.90
3086;DHT22;52812;48.960;9.108;2023-03-16T04:13:34;-0.90;99.90
3086;DHT22;52812;48.960;9.108;2023-03-16T04:16:00;-0.90;99.90
3086;DHT22;52812;48.960;9.108;2023-03-16T04:18:29;-0.90;99.90
3086;DHT22;52812;48.960;9.108;2023-03-16T04:21:03;-0.90;99.90
3086;DHT22;52812;48.960;9.108;2023-03-16T04:23:30;-0.90;99.90
3086;DHT22;52812;48.960;9.108;2023-03-16T04:25:58;-0.90;99.90
3086;DHT22;52812;48.960;9.108;2023-03-16T04:28:23;-0.90;99.90
3086;DHT22;52812;48.960;9.108;2023-03-16T04:30:53;-0.90;99.90
3086;DHT22;52812;48.960;9.108;2023-03-16T04:33:19;-0.90;99.90
3086;DHT22;52812;48.960;9.108;2023-03-16T04:35:46;-0.90;99.90
3086;DHT22;52812;48.960;9.108;2023-03-16T04:38:12;-0.90;99.90
3086;DHT22;52812;48.960;9.108;2023-03-16T04:40:37;-0.90;99.90
3086;DHT22;52812;48.960;9.108;2023-03-16T04:43:03;-1.00;99.90
3086;DHT22;52812;48.960;9.108;2023-03-16T04:45:29;-1.00;99.90
3086;DHT22;52812;48.960;9.108;2023-03-16T04:47:54;-0.90;99.90
3086;DHT22;52812;48.960;9.108;2023-03-16T04:50:21;-0.90;99.90
3086;DHT22;52812;48.960;9.108;2023-03-16T04:52:47;-0.90;99.90
3086;DHT22;52812;48.960;9.108;2023-03-16T04:55:12;-0.90;99.90
3086;DHT22;52812;48.960;9.108;2023-03-16T04:57:38;-0.90;99.90
3086;DHT22;52812;48.960;9.108;2023-03-16T05:00:05;-0.90;99.90
3086;DHT22;52812;48.960;9.108;2023-03-16T05:02:43;-1.00;99.90
3086;DHT22;52812;48.960;9.108;2023-03-16T05:05:08;-1.00;99.90
3086;DHT22;52812;48.960;9.108;2023-03-16T05:07:34;-1.00;99.90
3086;DHT22;52812;48.960;9.108;2023-03-16T05:10:00;-1.00;99.90
3086;DHT22;52812;48.960;9.108;2023-03-16T05:12:25;-1.10;99.90
3086;DHT22;52812;48.960;9.108;2023-03-16T05:14:51;-1.10;99.90
3086;DHT22;52812;48.960;9.108;2023-03-16T05:17:16;-1.00;99.90
3086;DHT22;52812;48.960;9.108;2023-03-16T05:19:42;-1.00;99.90
3086;DHT22;52812;48.960;9.108;2023-03-16T05:22:08;-1.00;99.90
3086;DHT22;52812;48.960;9.108;2023-03-16T05:24:33;-1.00;99.90
3086;DHT22;52812;48.960;9.108;2023-03-16T05:26:59;-1.00;99.90
3086;DHT22;52812;48.960;9.108;2023-03-16T05:29:28;-1.00;99.90
3086;DHT22;52812;48.960;9.108;2023-03-16T05:31:58;-1.00;99.90
3086;DHT22;52812;48.960;9.108;2023-03-16T05:34:24;-1.00;99.90
3086;DHT22;52812;48.960;9.108;2023-03-16T05:36:50;-1.00;99.90
3086;DHT22;52812;48.960;9.108;2023-03-16T05:39:16;-1.00;99.90
3086;DHT22;52812;48.960;9.108;2023-03-16T05:41:43;-1.00;99.90
3086;DHT22;52812;48.960;9.108;2023-03-16T05:44:09;-1.00;99.90
3086;DHT22;52812;48.960;9.108;2023-03-16T05:46:35;-1.00;99.90
3086;DHT22;52812;48.960;9.108;2023-03-16T05:49:01;-1.10;99.90
3086;DHT22;52812;48.960;9.108;2023-03-16T05:51:26;-1.10;99.90
3086;DHT22;52812;48.960;9.108;2023-03-16T05:53:53;-1.00;99.90
3086;DHT22;52812;48.960;9.108;2023-03-16T05:56:23;-1.00;99.90
3086;DHT22;52812;48.960;9.108;2023-03-16T05:58:50;-0.90;99.90
3086;DHT22;52812;48.960;9.108;2023-03-16T06:01:16;-0.80;99.90
3086;DHT22;52812;48.960;9.108;2023-03-16T06:03:42;-0.80;99.90
3086;DHT22;52812;48.960;9.108;2023-03-16T06:06:07;-0.70;99.90
3086;DHT22;52812;48.960;9.108;2023-03-16T06:08:33;-0.60;99.90
3086;DHT22;52812;48.960;9.108;2023-03-16T06:10:59;-0.50;99.90
3086;DHT22;52812;48.960;9.108;2023-03-16T06:13:24;-0.30;99.90
3086;DHT22;52812;48.960;9.108;2023-03-16T06:15:50;-0.30;99.90
3086;DHT22;52812;48.960;9.108;2023-03-16T06:18:15;-0.20;99.90
3086;DHT22;52812;48.960;9.108;2023-03-16T06:20:41;-0.20;99.90
3086;DHT22;52812;48.960;9.108;2023-03-16T06:23:07;-0.20;99.90
3086;DHT22;52812;48.960;9.108;2023-03-16T06:25:33;-0.20;99.90
3086;DHT22;52812;48.960;9.108;2023-03-16T06:27:58;-0.10;99.90
3086;DHT22;52812;48.960;9.108;2023-03-16T06:30:24;-0.10;99.90
3086;DHT22;52812;48.960;9.108;2023-03-16T06:32:50;0.00;99.90
3086;DHT22;52812;48.960;9.108;2023-03-16T06:35:16;0.10;99.90
3086;DHT22;52812;48.960;9.108;2023-03-16T06:37:42;0.20;99.90
3086;DHT22;52812;48.960;9.108;2023-03-16T06:40:08;0.40;99.90
3086;DHT22;52812;48.960;9.108;2023-03-16T06:42:34;0.50;99.90
3086;DHT22;52812;48.960;9.108;2023-03-16T06:45:00;0.60;99.90
3086;DHT22;52812;48.960;9.108;2023-03-16T06:47:25;0.70;99.90
3086;DHT22;52812;48.960;9.108;2023-03-16T06:49:51;0.90;99.90
3086;DHT22;52812;48.960;9.108;2023-03-16T06:52:20;0.90;99.90
3086;DHT22;52812;48.960;9.108;2023-03-16T06:54:45;1.10;99.90
3086;DHT22;52812;48.960;9.108;2023-03-16T06:57:11;1.90;99.90
3086;DHT22;52812;48.960;9.108;2023-03-16T06:59:37;2.10;99.90
3086;DHT22;52812;48.960;9.108;2023-03-16T07:02:02;2.50;99.90
3086;DHT22;52812;48.960;9.108;2023-03-16T07:04:28;3.00;99.90
3086;DHT22;52812;48.960;9.108;2023-03-16T07:06:54;3.00;99.90
3086;DHT22;52812;48.960;9.108;2023-03-16T07:09:19;3.20;99.90
3086;DHT22;52812;48.960;9.108;2023-03-16T07:11:46;3.60;99.90
3086;DHT22;52812;48.960;9.108;2023-03-16T07:14:12;3.90;99.90
3086;DHT22;52812;48.960;9.108;2023-03-16T07:16:37;3.60;99.90
3086;DHT22;52812;48.960;9.108;2023-03-16T07:19:03;3.50;99.90
3086;DHT22;52812;48.960;9.108;2023-03-16T07:21:29;3.60;99.90
3086;DHT22;52812;48.960;9.108;2023-03-16T07:24:03;3.60;99.90
3086;DHT22;52812;48.960;9.108;2023-03-16T07:26:29;3.90;99.90
3086;DHT22;52812;48.960;9.108;2023-03-16T07:28:57;4.00;99.90
3086;DHT22;52812;48.960;9.108;2023-03-16T07:31:23;4.30;99.90
3086;DHT22;52812;48.960;9.108;2023-03-16T07:33:49;4.70;99.90
3086;DHT22;52812;48.960;9.108;2023-03-16T07:36:15;4.60;99.90
3086;DHT22;52812;48.960;9.108;2023-03-16T07:38:41;4.60;99.90
3086;DHT22;52812;48.960;9.108;2023-03-16T07:41:07;4.50;99.90
3086;DHT22;52812;48.960;9.108;2023-03-16T07:43:33;4.60;99.90
3086;DHT22;52812;48.960;9.108;2023-03-16T07:45:59;4.50;99.90
3086;DHT22;52812;48.960;9.108;2023-03-16T07:48:25;4.80;99.90
3086;DHT22;52812;48.960;9.108;2023-03-16T07:50:51;4.90;99.90
3086;DHT22;52812;48.960;9.108;2023-03-16T07:53:18;5.10;99.90
3086;DHT22;52812;48.960;9.108;2023-03-16T07:55:44;5.20;99.90
3086;DHT22;52812;48.960;9.108;2023-03-16T07:58:11;4.80;99.90
3086;DHT22;52812;48.960;9.108;2023-03-16T08:00:37;4.80;99.90
3086;DHT22;52812;48.960;9.108;2023-03-16T08:03:03;4.80;99.90
3086;DHT22;52812;48.960;9.108;2023-03-16T08:05:29;4.80;99.90
3086;DHT22;52812;48.960;9.108;2023-03-16T08:07:57;5.00;99.90
3086;DHT22;52812;48.960;9.108;2023-03-16T08:10:23;4.90;99.90
3086;DHT22;52812;48.960;9.108;2023-03-16T08:12:49;4.80;99.90
3086;DHT22;52812;48.960;9.108;2023-03-16T08:15:16;4.60;99.90
3086;DHT22;52812;48.960;9.108;2023-03-16T08:17:41;4.50;99.90
3086;DHT22;52812;48.960;9.108;2023-03-16T08:20:08;4.50;99.90
3086;DHT22;52812;48.960;9.108;2023-03-16T08:22:36;4.40;99.90
3086;DHT22;52812;48.960;9.108;2023-03-16T08:25:07;4.40;99.90
3086;DHT22;52812;48.960;9.108;2023-03-16T08:27:36;4.40;99.90
3086;DHT22;52812;48.960;9.108;2023-03-16T08:30:08;4.60;99.90
3086;DHT22;52812;48.960;9.108;2023-03-16T08:32:36;4.80;99.90
3086;DHT22;52812;48.960;9.108;2023-03-16T08:35:02;4.70;99.90
3086;DHT22;52812;48.960;9.108;2023-03-16T08:37:28;4.80;99.90
3086;DHT22;52812;48.960;9.108;2023-03-16T08:39:53;4.80;99.90
3086;DHT22;52812;48.960;9.108;2023-03-16T08:42:19;5.00;99.90
3086;DHT22;52812;48.960;9.108;2023-03-16T08:44:46;5.10;99.90
3086;DHT22;52812;48.960;9.108;2023-03-16T08:47:15;5.00;99.90
3086;DHT22;52812;48.960;9.108;2023-03-16T08:49:41;5.00;99.90
3086;DHT22;52812;48.960;9.108;2023-03-16T08:52:07;5.30;99.90
3086;DHT22;52812;48.960;9.108;2023-03-16T08:54:37;5.40;99.90
3086;DHT22;52812;48.960;9.108;2023-03-16T08:57:03;5.50;99.90
3086;DHT22;52812;48.960;9.108;2023-03-16T08:59:29;5.50;99.90
3086;DHT22;52812;48.960;9.108;2023-03-16T09:01:55;5.80;99.90
3086;DHT22;52812;48.960;9.108;2023-03-16T09:04:21;5.80;99.90
3086;DHT22;52812;48.960;9.108;2023-03-16T09:06:48;5.90;99.90
3086;DHT22;52812;48.960;9.108;2023-03-16T09:09:16;6.00;99.90
3086;DHT22;52812;48.960;9.108;2023-03-16T09:11:42;6.10;99.90
3086;DHT22;52812;48.960;9.108;2023-03-16T09:14:08;6.20;99.90
3086;DHT22;52812;48.960;9.108;2023-03-16T09:16:35;6.20;99.90
3086;DHT22;52812;48.960;9.108;2023-03-16T09:19:04;6.30;99.90
3086;DHT22;52812;48.960;9.108;2023-03-16T09:21:30;6.60;99.90
3086;DHT22;52812;48.960;9.108;2023-03-16T09:23:56;6.80;99.90
3086;DHT22;52812;48.960;9.108;2023-03-16T09:26:22;6.80;99.90
3086;DHT22;52812;48.960;9.108;2023-03-16T09:28:48;6.90;99.90
3086;DHT22;52812;48.960;9.108;2023-03-16T09:31:18;6.90;99.90
3086;DHT22;52812;48.960;9.108;2023-03-16T09:33:44;7.00;99.90
3086;DHT22;52812;48.960;9.108;2023-03-16T09:36:11;7.10;99.90
3086;DHT22;52812;48.960;9.108;2023-03-16T09:38:38;7.20;99.90
3086;DHT22;52812;48.960;9.108;2023-03-16T09:41:34;7.30;99.90
3086;DHT22;52812;48.960;9.108;2023-03-16T09:46:55;7.70;99.90
3086;DHT22;52812;48.960;9.108;2023-03-16T09:49:26;7.90;99.90
3086;DHT22;52812;48.960;9.108;2023-03-16T09:54:38;8.00;99.90
3086;DHT22;52812;48.960;9.108;2023-03-16T09:57:16;8.10;99.90
3086;DHT22;52812;48.960;9.108;2023-03-16T09:59:45;8.10;99.90
3086;DHT22;52812;48.960;9.108;2023-03-16T10:04:53;8.10;99.90
3086;DHT22;52812;48.960;9.108;2023-03-16T10:10:29;8.20;99.90
3086;DHT22;52812;48.960;9.108;2023-03-16T10:13:00;8.10;99.90
3086;DHT22;52812;48.960;9.108;2023-03-16T10:15:30;8.20;99.90
3086;DHT22;52812;48.960;9.108;2023-03-16T10:18:19;8.30;99.90
3086;DHT22;52812;48.960;9.108;2023-03-16T10:20:48;8.30;99.90
3086;DHT22;52812;48.960;9.108;2023-03-16T10:23:23;8.30;99.90
3086;DHT22;52812;48.960;9.108;2023-03-16T10:25:51;8.50;99.90
3086;DHT22;52812;48.960;9.108;2023-03-16T10:28:33;8.60;99.90
3086;DHT22;52812;48.960;9.108;2023-03-16T10:31:01;8.80;99.90
3086;DHT22;52812;48.960;9.108;2023-03-16T10:33:31;8.80;99.90
3086;DHT22;52812;48.960;9.108;2023-03-16T10:36:32;9.00;99.90
3086;DHT22;52812;48.960;9.108;2023-03-16T10:39:11;9.30;99.90
3086;DHT22;52812;48.960;9.108;2023-03-16T10:41:39;9.50;99.90
3086;DHT22;52812;48.960;9.108;2023-03-16T10:44:12;9.60;99.90
3086;DHT22;52812;48.960;9.108;2023-03-16T10:46:47;9.20;99.90
3086;DHT22;52812;48.960;9.108;2023-03-16T10:49:27;9.30;99.90
3086;DHT22;52812;48.960;9.108;2023-03-16T10:51:57;9.30;99.90
3086;DHT22;52812;48.960;9.108;2023-03-16T10:54:38;9.40;99.90
3086;DHT22;52812;48.960;9.108;2023-03-16T10:57:33;9.50;99.90
3086;DHT22;52812;48.960;9.108;2023-03-16T11:00:07;9.50;99.90
3086;DHT22;52812;48.960;9.108;2023-03-16T11:02:45;9.60;99.90
3086;DHT22;52812;48.960;9.108;2023-03-16T11:07:37;9.70;99.90
3086;DHT22;52812;48.960;9.108;2023-03-16T11:10:18;9.60;99.90
3086;DHT22;52812;48.960;9.108;2023-03-16T11:12:50;9.60;99.90
3086;DHT22;52812;48.960;9.108;2023-03-16T11:15:15;9.80;99.90
3086;DHT22;52812;48.960;9.108;2023-03-16T11:17:50;9.90;99.90
3086;DHT22;52812;48.960;9.108;2023-03-16T11:20:24;10.00;99.90
3086;DHT22;52812;48.960;9.108;2023-03-16T11:22:51;9.90;99.90
3086;DHT22;52812;48.960;9.108;2023-03-16T11:25:28;10.00;99.90
3086;DHT22;52812;48.960;9.108;2023-03-16T11:30:49;9.50;99.90
3086;DHT22;52812;48.960;9.108;2023-03-16T11:33:16;9.50;99.90
3086;DHT22;52812;48.960;9.108;2023-03-16T11:35:59;9.60;99.90
3086;DHT22;52812;48.960;9.108;2023-03-16T11:38:38;9.70;99.90
3086;DHT22;52812;48.960;9.108;2023-03-16T11:41:12;9.80;99.90
3086;DHT22;52812;48.960;9.108;2023-03-16T11:43:54;10.10;99.90
3086;DHT22;52812;48.960;9.108;2023-03-16T11:46:30;10.00;99.90
3086;DHT22;52812;48.960;9.108;2023-03-16T11:55:28;10.10;99.90
3086;DHT22;52812;48.960;9.108;2023-03-16T12:07:02;9.90;99.90
3086;DHT22;52812;48.960;9.108;2023-03-16T12:14:52;10.20;99.90
3086;DHT22;52812;48.960;9.108;2023-03-16T12:17:26;10.10;99.90
3086;DHT22;52812;48.960;9.108;2023-03-16T12:20:02;10.30;99.90
3086;DHT22;52812;48.960;9.108;2023-03-16T12:22:36;10.30;99.90
3086;DHT22;52812;48.960;9.108;2023-03-16T12:25:14;10.60;99.90
3086;DHT22;52812;48.960;9.108;2023-03-16T12:27:42;10.70;99.90
3086;DHT22;52812;48.960;9.108;2023-03-16T12:35:57;10.90;99.90
3086;DHT22;52812;48.960;9.108;2023-03-16T12:41:24;11.00;99.90
3086;DHT22;52812;48.960;9.108;2023-03-16T12:44:13;11.00;99.90
3086;DHT22;52812;48.960;9.108;2023-03-16T12:46:55;11.10;99.90
3086;DHT22;52812;48.960;9.108;2023-03-16T12:49:24;11.20;99.90
3086;DHT22;52812;48.960;9.108;2023-03-16T12:52:05;11.30;99.90
3086;DHT22;52812;48.960;9.108;2023-03-16T12:54:31;11.30;99.90
3086;DHT22;52812;48.960;9.108;2023-03-16T12:57:04;11.20;99.90
3086;DHT22;52812;48.960;9.108;2023-03-16T12:59:54;11.10;99.90
3086;DHT22;52812;48.960;9.108;2023-03-16T13:02:29;11.10;99.90
3086;DHT22;52812;48.960;9.108;2023-03-16T13:05:01;11.30;99.90
3086;DHT22;52812;48.960;9.108;2023-03-16T13:07:32;11.00;99.90
3086;DHT22;52812;48.960;9.108;2023-03-16T13:09:59;10.90;99.90
3086;DHT22;52812;48.960;9.108;2023-03-16T13:12:27;11.00;99.90
3086;DHT22;52812;48.960;9.108;2023-03-16T13:14:53;10.90;99.90
3086;DHT22;52812;48.960;9.108;2023-03-16T13:17:27;11.00;99.90
3086;DHT22;52812;48.960;9.108;2023-03-16T13:20:02;11.10;99.90
3086;DHT22;52812;48.960;9.108;2023-03-16T13:22:49;10.90;99.90
3086;DHT22;52812;48.960;9.108;2023-03-16T13:27:54;10.70;99.90
3086;DHT22;52812;48.960;9.108;2023-03-16T13:30:30;10.60;99.90
3086;DHT22;52812;48.960;9.108;2023-03-16T13:35:33;10.60;99.90
3086;DHT22;52812;48.960;9.108;2023-03-16T13:38:06;10.60;99.90
3086;DHT22;52812;48.960;9.108;2023-03-16T13:40:48;10.70;99.90
3086;DHT22;52812;48.960;9.108;2023-03-16T13:43:15;10.80;99.90
3086;DHT22;52812;48.960;9.108;2023-03-16T13:45:41;10.90;99.90
3086;DHT22;52812;48.960;9.108;2023-03-16T13:48:11;11.00;99.90
3086;DHT22;52812;48.960;9.108;2023-03-16T13:50:38;11.00;99.90
3086;DHT22;52812;48.960;9.108;2023-03-16T13:53:14;10.90;99.90
3086;DHT22;52812;48.960;9.108;2023-03-16T13:55:44;10.90;99.90
3086;DHT22;52812;48.960;9.108;2023-03-16T13:58:22;11.10;99.90
3086;DHT22;52812;48.960;9.108;2023-03-16T14:00:48;11.30;99.90
3086;DHT22;52812;48.960;9.108;2023-03-16T14:03:18;11.40;99.90
3086;DHT22;52812;48.960;9.108;2023-03-16T14:05:46;11.50;99.90
3086;DHT22;52812;48.960;9.108;2023-03-16T14:08:23;11.60;99.90
3086;DHT22;52812;48.960;9.108;2023-03-16T14:10:50;11.70;99.90
3086;DHT22;52812;48.960;9.108;2023-03-16T14:16:12;11.60;99.90
3086;DHT22;52812;48.960;9.108;2023-03-16T14:18:43;11.70;99.90
3086;DHT22;52812;48.960;9.108;2023-03-16T14:21:36;11.80;99.90
3086;DHT22;52812;48.960;9.108;2023-03-16T14:24:19;11.70;99.90
3086;DHT22;52812;48.960;9.108;2023-03-16T14:26:48;11.60;99.90
3086;DHT22;52812;48.960;9.108;2023-03-16T14:31:47;11.40;99.90
3086;DHT22;52812;48.960;9.108;2023-03-16T14:37:13;11.30;99.90
3086;DHT22;52812;48.960;9.108;2023-03-16T14:39:40;11.30;99.90
3086;DHT22;52812;48.960;9.108;2023-03-16T14:42:14;11.30;99.90
3086;DHT22;52812;48.960;9.108;2023-03-16T14:44:43;11.40;99.90
3086;DHT22;52812;48.960;9.108;2023-03-16T14:47:21;11.20;99.90
3086;DHT22;52812;48.960;9.108;2023-03-16T14:49:48;11.20;99.90
3086;DHT22;52812;48.960;9.108;2023-03-16T14:52:24;11.30;99.90
3086;DHT22;52812;48.960;9.108;2023-03-16T14:54:52;11.40;99.90
3086;DHT22;52812;48.960;9.108;2023-03-16T14:57:20;11.40;99.90
3086;DHT22;52812;48.960;9.108;2023-03-16T14:59:46;11.40;99.90
3086;DHT22;52812;48.960;9.108;2023-03-16T15:02:16;11.40;99.90
3086;DHT22;52812;48.960;9.108;2023-03-16T15:04:43;11.50;99.90
3086;DHT22;52812;48.960;9.108;2023-03-16T15:07:25;11.60;99.90
3086;DHT22;52812;48.960;9.108;2023-03-16T15:09:53;11.50;99.90
3086;DHT22;52812;48.960;9.108;2023-03-16T15:12:20;11.50;99.90
3086;DHT22;52812;48.960;9.108;2023-03-16T15:14:49;11.60;99.90
3086;DHT22;52812;48.960;9.108;2023-03-16T15:17:33;11.60;99.90
3086;DHT22;52812;48.960;9.108;2023-03-16T15:19:59;11.60;99.90
3086;DHT22;52812;48.960;9.108;2023-03-16T15:22:30;11.60;99.90
3086;DHT22;52812;48.960;9.108;2023-03-16T15:24:57;11.60;99.90
3086;DHT22;52812;48.960;9.108;2023-03-16T15:27:27;11.60;99.90
3086;DHT22;52812;48.960;9.108;2023-03-16T15:29:53;11.60;99.90
3086;DHT22;52812;48.960;9.108;2023-03-16T15:32:19;11.60;99.90
3086;DHT22;52812;48.960;9.108;2023-03-16T15:34:44;11.40;99.90
3086;DHT22;52812;48.960;9.108;2023-03-16T15:37:13;11.40;99.90
3086;DHT22;52812;48.960;9.108;2023-03-16T15:39:39;11.50;99.90
3086;DHT22;52812;48.960;9.108;2023-03-16T15:42:16;11.50;99.90
3086;DHT22;52812;48.960;9.108;2023-03-16T15:44:43;11.50;99.90
3086;DHT22;52812;48.960;9.108;2023-03-16T15:47:10;11.50;99.90
3086;DHT22;52812;48.960;9.108;2023-03-16T15:49:36;11.50;99.90
3086;DHT22;52812;48.960;9.108;2023-03-16T15:52:06;11.40;99.90
3086;DHT22;52812;48.960;9.108;2023-03-16T15:54:33;11.40;99.90
3086;DHT22;52812;48.960;9.108;2023-03-16T15:57:00;11.40;99.90
3086;DHT22;52812;48.960;9.108;2023-03-16T15:59:30;11.30;99.90
3086;DHT22;52812;48.960;9.108;2023-03-16T16:01:59;11.30;99.90
3086;DHT22;52812;48.960;9.108;2023-03-16T16:04:25;11.20;99.90
3086;DHT22;52812;48.960;9.108;2023-03-16T16:06:52;11.20;99.90
3086;DHT22;52812;48.960;9.108;2023-03-16T16:09:21;11.20;99.90
3086;DHT22;52812;48.960;9.108;2023-03-16T16:11:47;11.20;99.90
3086;DHT22;52812;48.960;9.108;2023-03-16T16:14:16;11.10;99.90
3086;DHT22;52812;48.960;9.108;2023-03-16T16:16:43;11.10;99.90
3086;DHT22;52812;48.960;9.108;2023-03-16T16:19:16;11.10;99.90
3086;DHT22;52812;48.960;9.108;2023-03-16T16:21:43;11.10;99.90
3086;DHT22;52812;48.960;9.108;2023-03-16T16:24:09;11.00;99.90
3086;DHT22;52812;48.960;9.108;2023-03-16T16:26:40;11.00;99.90
3086;DHT22;52812;48.960;9.108;2023-03-16T16:29:15;11.00;99.90
3086;DHT22;52812;48.960;9.108;2023-03-16T16:31:41;11.00;99.90
3086;DHT22;52812;48.960;9.108;2023-03-16T16:34:18;10.90;99.90
3086;DHT22;52812;48.960;9.108;2023-03-16T16:36:46;10.90;99.90
3086;DHT22;52812;48.960;9.108;2023-03-16T16:39:12;10.90;99.90
3086;DHT22;52812;48.960;9.108;2023-03-16T16:41:38;10.80;99.90
3086;DHT22;52812;48.960;9.108;2023-03-16T16:44:05;10.80;99.90
3086;DHT22;52812;48.960;9.108;2023-03-16T16:46:39;10.60;99.90
3086;DHT22;52812;48.960;9.108;2023-03-16T16:49:12;10.50;99.90
3086;DHT22;52812;48.960;9.108;2023-03-16T16:51:39;10.40;99.90
3086;DHT22;52812;48.960;9.108;2023-03-16T16:54:22;10.40;99.90
3086;DHT22;52812;48.960;9.108;2023-03-16T16:56:53;10.40;99.90
3086;DHT22;52812;48.960;9.108;2023-03-16T16:59:22;10.30;99.90
3086;DHT22;52812;48.960;9.108;2023-03-16T17:01:49;10.30;99.90
3086;DHT22;52812;48.960;9.108;2023-03-16T17:04:23;10.20;99.90
3086;DHT22;52812;48.960;9.108;2023-03-16T17:06:51;10.20;99.90
3086;DHT22;52812;48.960;9.108;2023-03-16T17:09:23;10.20;99.90